CheckWX is a tool to help pilots better visualize weather data.  It is not intended as a substitute for an official pre-flight weather briefing.

22:22:30 UTC

6R6 METAR
Terrell County Airport
Dryden, Texas, USA
Current

30 mins ago

K6R6 252153Z AUTO 07009G21KT 040V120 29/04 A3008 RMK AO1 SLP156 T02890044
Observed
Mar-25 @ 21:53 UTC
Wind
  • 070° at 9 KTS
  • Gusting to 21 KTS
Visibility
Temperature
29°C / 84°F
Dewpoint
C / 39°F
Humidity
20%
Altimeter
30.08" Hg
Pressure
1015.6 hPa
Previous

1 hour ago

K6R6 252053Z AUTO 05012G18KT 29/07 A3010 RMK AO1 SLP162 T02940067 58018
Observed
Mar-25 @ 20:53 UTC
Wind
  • 050° at 12 KTS
  • Gusting to 18 KTS
Visibility
Temperature
29°C / 84°F
Dewpoint
C / 45°F
Humidity
25%
Altimeter
30.1" Hg
Pressure
1016.2 hPa
Previous

2 hours ago

K6R6 251953Z AUTO 07006G19KT 28/08 A3012 RMK AO1 SLP169 T02830078
Observed
Mar-25 @ 19:53 UTC
Wind
  • 070° at 6 KTS
  • Gusting to 19 KTS
Visibility
Temperature
28°C / 82°F
Dewpoint
C / 46°F
Humidity
28%
Altimeter
30.12" Hg
Pressure
1016.9 hPa